createdAt,value
2024-01-09T00:00:12.573Z,-0.98
2024-01-09T00:01:12.586Z,-0.98
2024-01-09T00:02:12.590Z,-0.99
2024-01-09T00:03:12.717Z,-0.99
2024-01-09T00:04:12.529Z,-0.99
2024-01-09T00:05:12.535Z,-0.99
2024-01-09T00:06:12.614Z,-0.98
2024-01-09T00:07:12.496Z,-0.97
2024-01-09T00:08:12.519Z,-0.98
2024-01-09T00:09:12.472Z,-0.98
2024-01-09T00:10:12.494Z,-0.97
2024-01-09T00:11:12.545Z,-1.01
2024-01-09T00:12:12.461Z,-0.99
2024-01-09T00:13:12.436Z,-0.97
2024-01-09T00:14:12.441Z,-1.01
2024-01-09T00:15:12.415Z,-0.99
2024-01-09T00:16:13.026Z,-1.01
2024-01-09T00:17:12.471Z,-1.01
2024-01-09T00:18:12.537Z,-1.01
2024-01-09T00:19:12.488Z,-0.99
2024-01-09T00:20:12.442Z,-1.02
2024-01-09T00:21:12.360Z,-0.99
2024-01-09T00:22:12.330Z,-1.01
2024-01-09T00:23:12.378Z,-0.98
2024-01-09T00:24:12.329Z,-1.01
2024-01-09T00:25:12.312Z,-1.01
2024-01-09T00:26:12.331Z,-1.04
2024-01-09T00:27:12.298Z,-1.04
2024-01-09T00:28:12.291Z,-1.04
2024-01-09T00:29:12.326Z,-1.04
2024-01-09T00:30:12.378Z,-1.04
2024-01-09T00:31:12.253Z,-1.04
2024-01-09T00:32:12.357Z,-1.04
2024-01-09T00:33:12.399Z,-1.02
2024-01-09T00:34:12.338Z,-0.99
2024-01-09T00:35:12.256Z,-0.99
2024-01-09T00:36:12.196Z,-0.99
2024-01-09T00:37:12.172Z,-0.98
2024-01-09T00:38:12.239Z,-1.01
2024-01-09T00:39:12.173Z,-1.01
2024-01-09T00:40:12.171Z,-1.02
2024-01-09T00:41:12.185Z,-1.02
2024-01-09T00:42:12.214Z,-1.04
2024-01-09T00:43:12.116Z,-1.04
2024-01-09T00:44:12.153Z,-1.04
2024-01-09T00:45:12.112Z,-1.02
2024-01-09T00:46:12.104Z,-1.04
2024-01-09T00:47:12.121Z,-1.04
2024-01-09T00:48:12.220Z,-1.02
2024-01-09T00:49:12.210Z,-1.04
2024-01-09T00:50:12.080Z,-1.05
2024-01-09T00:51:12.042Z,-1.04
2024-01-09T00:52:12.027Z,-1.05
2024-01-09T00:53:12.103Z,-1.04
2024-01-09T00:54:12.028Z,-1.05
2024-01-09T00:55:12.395Z,-1.05
2024-01-09T00:56:11.997Z,-1.04
2024-01-09T00:57:11.991Z,-1.04
2024-01-09T00:58:11.974Z,-1.04
2024-01-09T00:59:11.987Z,-1.05
2024-01-09T01:00:11.951Z,-1.05
2024-01-09T01:01:11.992Z,-1.07
2024-01-09T01:02:11.965Z,-1.07
2024-01-09T01:03:11.996Z,-1.09
2024-01-09T01:04:11.981Z,-1.09
2024-01-09T01:05:12.065Z,-1.10
2024-01-09T01:06:11.954Z,-1.10
2024-01-09T01:07:11.905Z,-1.12
2024-01-09T01:08:11.915Z,-1.10
2024-01-09T01:09:11.851Z,-1.09
2024-01-09T01:10:11.836Z,-1.09
2024-01-09T01:11:11.869Z,-1.10
2024-01-09T01:12:11.813Z,-1.12
2024-01-09T01:13:11.798Z,-1.10
2024-01-09T01:14:11.874Z,-1.09
2024-01-09T01:15:11.792Z,-1.09
2024-01-09T01:16:11.777Z,-1.10
2024-01-09T01:17:11.796Z,-1.10
2024-01-09T01:18:11.860Z,-1.10
2024-01-09T01:19:11.766Z,-1.12
2024-01-09T01:20:11.859Z,-1.09
2024-01-09T01:21:11.732Z,-1.09
2024-01-09T01:22:11.731Z,-1.10
2024-01-09T01:23:11.734Z,-1.09
2024-01-09T01:24:11.687Z,-1.10
2024-01-09T01:25:11.693Z,-1.05
2024-01-09T01:26:11.707Z,-1.09
2024-01-09T01:27:11.678Z,-1.12
2024-01-09T01:28:11.841Z,-1.10
2024-01-09T01:29:11.663Z,-1.10
2024-01-09T01:30:11.677Z,-1.12
2024-01-09T01:31:11.612Z,-1.13
2024-01-09T01:32:11.738Z,-1.10
2024-01-09T01:33:11.736Z,-1.12
2024-01-09T01:34:11.672Z,-1.12
2024-01-09T01:35:11.635Z,-1.12
2024-01-09T01:36:11.566Z,-1.10
2024-01-09T01:37:11.557Z,-1.13
2024-01-09T01:38:11.592Z,-1.12
2024-01-09T01:39:11.537Z,-1.13
2024-01-09T01:40:11.554Z,-1.12
2024-01-09T01:41:11.576Z,-1.12
2024-01-09T01:42:11.514Z,-1.12
2024-01-09T01:43:11.519Z,-1.10
2024-01-09T01:44:11.514Z,-1.15
2024-01-09T01:45:11.477Z,-1.16
2024-01-09T01:46:11.475Z,-1.16
2024-01-09T01:47:11.697Z,-1.15
2024-01-09T01:48:11.634Z,-1.16
2024-01-09T01:49:11.553Z,-1.17
2024-01-09T01:50:11.496Z,-1.17
2024-01-09T01:51:11.420Z,-1.17
2024-01-09T01:52:11.413Z,-1.20
2024-01-09T01:53:11.469Z,-1.22
2024-01-09T01:54:11.375Z,-1.19
2024-01-09T01:55:11.382Z,-1.20
2024-01-09T01:56:11.374Z,-1.19
2024-01-09T01:57:11.556Z,-1.25
2024-01-09T01:58:11.342Z,-1.20
2024-01-09T01:59:11.351Z,-1.22
2024-01-09T02:00:11.318Z,-1.23
2024-01-09T02:01:11.386Z,-1.23
2024-01-09T02:02:11.321Z,-1.22
2024-01-09T02:03:12.101Z,-1.25
2024-01-09T02:04:11.388Z,-1.25
2024-01-09T02:05:11.331Z,-1.23
2024-01-09T02:06:11.372Z,-1.23
2024-01-09T02:07:11.277Z,-1.25
2024-01-09T02:08:11.307Z,-1.23
2024-01-09T02:09:11.237Z,-1.25
2024-01-09T02:10:11.209Z,-1.25
2024-01-09T02:11:11.281Z,-1.28
2024-01-09T02:12:11.184Z,-1.27
2024-01-09T02:13:11.178Z,-1.27
2024-01-09T02:14:11.232Z,-1.27
2024-01-09T02:15:11.161Z,-1.30
2024-01-09T02:16:11.282Z,-1.27
2024-01-09T02:17:11.251Z,-1.27
2024-01-09T02:18:11.219Z,-1.28
2024-01-09T02:19:11.177Z,-1.28
2024-01-09T02:20:11.186Z,-1.30
2024-01-09T02:21:11.120Z,-1.31
2024-01-09T02:22:11.101Z,-1.33
2024-01-09T02:23:11.150Z,-1.31
2024-01-09T02:24:11.130Z,-1.33
2024-01-09T02:25:11.087Z,-1.31
2024-01-09T02:26:22.270Z,-1.33
2024-01-09T02:27:12.129Z,-1.33
2024-01-09T02:28:11.118Z,-1.33
2024-01-09T02:29:11.135Z,-1.33
2024-01-09T02:30:11.122Z,-1.35
2024-01-09T02:31:11.016Z,-1.34
2024-01-09T02:32:11.053Z,-1.35
2024-01-09T02:33:11.166Z,-1.35
2024-01-09T02:34:11.736Z,-1.37
2024-01-09T02:35:11.006Z,-1.37
2024-01-09T02:36:10.960Z,-1.37
2024-01-09T02:37:10.932Z,-1.35
2024-01-09T02:38:10.932Z,-1.37
2024-01-09T02:39:10.913Z,-1.38
2024-01-09T02:40:10.916Z,-1.40
2024-01-09T02:41:10.977Z,-1.40
2024-01-09T02:42:10.881Z,-1.40
2024-01-09T02:43:10.885Z,-1.41
2024-01-09T02:44:11.303Z,-1.40
2024-01-09T02:45:10.853Z,-1.38
2024-01-09T02:46:10.849Z,-1.38
2024-01-09T02:47:10.923Z,-1.38
2024-01-09T02:48:10.906Z,-1.43
2024-01-09T02:49:10.981Z,-1.45
2024-01-09T02:50:10.837Z,-1.43
2024-01-09T02:51:10.796Z,-1.45
2024-01-09T02:52:10.780Z,-1.46
2024-01-09T02:53:10.887Z,-1.46
2024-01-09T02:54:10.766Z,-1.49
2024-01-09T02:55:10.754Z,-1.49
2024-01-09T02:56:10.809Z,-1.48
2024-01-09T02:57:10.738Z,-1.48
2024-01-09T02:58:10.720Z,-1.51
2024-01-09T02:59:10.779Z,-1.49
2024-01-09T03:00:10.714Z,-1.49
2024-01-09T03:01:10.723Z,-1.48
2024-01-09T03:02:10.781Z,-1.49
2024-01-09T03:03:11.296Z,-1.48
2024-01-09T03:04:10.705Z,-1.51
2024-01-09T03:05:10.890Z,-1.52
2024-01-09T03:06:10.770Z,-1.54
2024-01-09T03:07:10.939Z,-1.56
2024-01-09T03:08:10.707Z,-1.56
2024-01-09T03:09:10.616Z,-1.56
2024-01-09T03:10:10.639Z,-1.56
2024-01-09T03:11:11.420Z,-1.58
2024-01-09T03:12:11.402Z,-1.59
2024-01-09T03:13:10.579Z,-1.61
2024-01-09T03:14:10.672Z,-1.62
2024-01-09T03:15:10.545Z,-1.66
2024-01-09T03:16:10.538Z,-1.61
2024-01-09T03:17:10.580Z,-1.64
2024-01-09T03:18:10.665Z,-1.62
2024-01-09T03:19:10.653Z,-1.62
2024-01-09T03:20:10.604Z,-1.62
2024-01-09T03:21:10.491Z,-1.66
2024-01-09T03:22:10.495Z,-1.61
2024-01-09T03:23:10.495Z,-1.64
2024-01-09T03:24:10.441Z,-1.66
2024-01-09T03:25:10.443Z,-1.67
2024-01-09T03:26:10.485Z,-1.66
2024-01-09T03:27:10.423Z,-1.67
2024-01-09T03:28:10.401Z,-1.66
2024-01-09T03:29:10.445Z,-1.66
2024-01-09T03:30:10.422Z,-1.66
2024-01-09T03:31:10.387Z,-1.66
2024-01-09T03:32:10.398Z,-1.69
2024-01-09T03:33:10.700Z,-1.67
2024-01-09T03:34:10.444Z,-1.67
2024-01-09T03:35:10.403Z,-1.67
2024-01-09T03:36:10.344Z,-1.67
2024-01-09T03:37:10.324Z,-1.69
2024-01-09T03:38:10.340Z,-1.69
2024-01-09T03:39:10.316Z,-1.70
2024-01-09T03:40:10.307Z,-1.69
2024-01-09T03:41:10.311Z,-1.69
2024-01-09T03:42:10.276Z,-1.70
2024-01-09T03:43:10.251Z,-1.70
2024-01-09T03:44:10.273Z,-1.69
2024-01-09T03:45:10.235Z,-1.72
2024-01-09T03:46:10.239Z,-1.72
2024-01-09T03:47:10.274Z,-1.72
2024-01-09T03:48:10.361Z,-1.73
2024-01-09T03:49:10.266Z,-1.74
2024-01-09T03:50:10.214Z,-1.76
2024-01-09T03:51:10.174Z,-1.76
2024-01-09T03:52:10.169Z,-1.76
2024-01-09T03:53:10.210Z,-1.76
2024-01-09T03:54:10.143Z,-1.77
2024-01-09T03:55:10.129Z,-1.79
2024-01-09T03:56:10.214Z,-1.76
2024-01-09T03:57:10.106Z,-1.79
2024-01-09T03:58:10.107Z,-1.82
2024-01-09T03:59:10.190Z,-1.80
2024-01-09T04:00:10.078Z,-1.80
2024-01-09T04:01:10.085Z,-1.80
2024-01-09T04:02:10.110Z,-1.80
2024-01-09T04:03:10.232Z,-1.79
2024-01-09T04:04:10.034Z,-1.80
2024-01-09T04:05:10.085Z,-1.80
2024-01-09T04:06:10.059Z,-1.82
2024-01-09T04:07:10.072Z,-1.82
2024-01-09T04:08:10.040Z,-1.84
2024-01-09T04:09:09.985Z,-1.87
2024-01-09T04:10:09.981Z,-1.84
2024-01-09T04:11:09.980Z,-1.85
2024-01-09T04:12:09.970Z,-1.85
2024-01-09T04:13:09.948Z,-1.85
2024-01-09T04:14:09.964Z,-1.82
2024-01-09T04:15:09.992Z,-1.85
2024-01-09T04:16:09.920Z,-1.84
2024-01-09T04:17:09.939Z,-1.85
2024-01-09T04:18:10.074Z,-1.85
2024-01-09T04:19:09.925Z,-1.85
2024-01-09T04:20:09.954Z,-1.87
2024-01-09T04:21:09.871Z,-1.87
2024-01-09T04:22:09.857Z,-1.90
2024-01-09T04:23:09.878Z,-1.88
2024-01-09T04:24:09.858Z,-1.87
2024-01-09T04:25:09.842Z,-1.87
2024-01-09T04:26:09.843Z,-1.88
2024-01-09T04:27:09.808Z,-1.91
2024-01-09T04:28:09.789Z,-1.90
2024-01-09T04:29:09.844Z,-1.90
2024-01-09T04:30:09.836Z,-1.91
2024-01-09T04:31:09.767Z,-1.90
2024-01-09T04:32:09.799Z,-1.91
2024-01-09T04:33:09.834Z,-1.91
2024-01-09T04:34:09.961Z,-1.90
2024-01-09T04:35:09.782Z,-1.91
2024-01-09T04:36:09.726Z,-1.91
2024-01-09T04:37:09.720Z,-1.88
2024-01-09T04:38:09.701Z,-1.92
2024-01-09T04:39:09.684Z,-1.92
2024-01-09T04:40:09.688Z,-1.94
2024-01-09T04:41:09.732Z,-1.94
2024-01-09T04:42:09.660Z,-1.95
2024-01-09T04:43:09.652Z,-1.91
2024-01-09T04:44:09.681Z,-1.92
2024-01-09T04:45:09.675Z,-1.90
2024-01-09T04:46:09.617Z,-1.92
2024-01-09T04:47:09.624Z,-1.92
2024-01-09T04:48:09.808Z,-1.92
2024-01-09T04:49:09.627Z,-1.91
2024-01-09T04:50:09.712Z,-1.92
2024-01-09T04:51:09.574Z,-1.94
2024-01-09T04:52:09.860Z,-1.94
2024-01-09T04:53:09.550Z,-1.95
2024-01-09T04:54:09.520Z,-1.95
2024-01-09T04:55:09.529Z,-1.95
2024-01-09T04:56:10.409Z,-1.92
2024-01-09T04:57:09.620Z,-1.94
2024-01-09T04:58:09.497Z,-1.94
2024-01-09T04:59:09.493Z,-1.95
2024-01-09T05:00:09.462Z,-1.92
2024-01-09T05:01:09.515Z,-1.91
2024-01-09T05:02:09.670Z,-1.92
2024-01-09T05:03:09.585Z,-1.91
2024-01-09T05:04:10.669Z,-1.92
2024-01-09T05:05:09.583Z,-1.94
2024-01-09T05:06:09.543Z,-1.92
2024-01-09T05:07:09.427Z,-1.97
2024-01-09T05:08:09.455Z,-1.97
2024-01-09T05:09:09.376Z,-1.97
2024-01-09T05:10:09.384Z,-1.95
2024-01-09T05:11:09.434Z,-1.94
2024-01-09T05:12:09.618Z,-1.94
2024-01-09T05:13:09.336Z,-1.95
2024-01-09T05:14:09.357Z,-1.97
2024-01-09T05:15:09.314Z,-1.95
2024-01-09T05:16:09.306Z,-1.95
2024-01-09T05:17:09.284Z,-1.97
2024-01-09T05:18:09.446Z,-1.97
2024-01-09T05:19:09.399Z,-1.98
2024-01-09T05:20:09.359Z,-1.98
2024-01-09T05:21:09.247Z,-1.97
2024-01-09T05:22:09.248Z,-1.97
2024-01-09T05:23:09.276Z,-1.94
2024-01-09T05:24:09.224Z,-1.97
2024-01-09T05:25:09.202Z,-1.95
2024-01-09T05:26:09.229Z,-1.97
2024-01-09T05:27:09.190Z,-1.94
2024-01-09T05:28:09.184Z,-1.95
2024-01-09T05:29:09.169Z,-1.94
2024-01-09T05:30:09.232Z,-1.98
2024-01-09T05:31:09.164Z,-1.98
2024-01-09T05:32:09.152Z,-1.98
2024-01-09T05:33:09.284Z,-1.98
2024-01-09T05:34:09.181Z,-1.97
2024-01-09T05:35:09.106Z,-2.00
2024-01-09T05:36:09.146Z,-2.00
2024-01-09T05:37:09.090Z,-2.00
2024-01-09T05:38:15.046Z,-2.00
2024-01-09T05:39:10.057Z,-1.98
2024-01-09T05:40:09.072Z,-2.00
2024-01-09T05:41:09.040Z,-1.98
2024-01-09T05:42:09.059Z,-2.03
2024-01-09T05:43:09.041Z,-2.02
2024-01-09T05:44:09.020Z,-2.02
2024-01-09T05:45:09.020Z,-1.98
2024-01-09T05:46:09.002Z,-2.00
2024-01-09T05:47:08.976Z,-2.02
2024-01-09T05:48:09.419Z,-1.98
2024-01-09T05:49:09.072Z,-2.00
2024-01-09T05:50:08.967Z,-2.00
2024-01-09T05:51:08.950Z,-2.00
2024-01-09T05:52:08.958Z,-2.02
2024-01-09T05:53:08.965Z,-2.00
2024-01-09T05:54:08.983Z,-2.02
2024-01-09T05:55:08.901Z,-2.00
2024-01-09T05:56:08.900Z,-2.02
2024-01-09T05:57:08.953Z,-2.00
2024-01-09T05:58:08.897Z,-1.98
2024-01-09T05:59:09.009Z,-1.98
2024-01-09T06:00:08.930Z,-1.98
2024-01-09T06:01:08.949Z,-1.98
2024-01-09T06:02:08.841Z,-2.00
2024-01-09T06:03:08.903Z,-2.02
2024-01-09T06:04:08.861Z,-2.00
2024-01-09T06:05:08.798Z,-2.03
2024-01-09T06:06:09.014Z,-2.02
2024-01-09T06:07:08.868Z,-2.00
2024-01-09T06:08:08.780Z,-2.02
2024-01-09T06:09:08.761Z,-1.98
2024-01-09T06:10:08.752Z,-2.00
2024-01-09T06:11:08.809Z,-1.98
2024-01-09T06:12:08.734Z,-1.98
2024-01-09T06:13:08.719Z,-2.00
2024-01-09T06:14:08.734Z,-2.00
2024-01-09T06:15:08.693Z,-2.03
2024-01-09T06:16:08.706Z,-2.00
2024-01-09T06:17:08.689Z,-2.00
2024-01-09T06:18:09.374Z,-2.03
2024-01-09T06:19:08.730Z,-2.00
2024-01-09T06:20:08.659Z,-2.02
2024-01-09T06:21:08.818Z,-2.02
2024-01-09T06:22:08.667Z,-2.02
2024-01-09T06:23:08.617Z,-2.02
2024-01-09T06:24:08.631Z,-2.02
2024-01-09T06:25:08.592Z,-2.00
2024-01-09T06:26:08.603Z,-2.02
2024-01-09T06:27:08.581Z,-2.00
2024-01-09T06:28:11.434Z,-2.02
2024-01-09T06:29:08.555Z,-2.03
2024-01-09T06:30:08.573Z,-2.02
2024-01-09T06:31:09.389Z,-2.03
2024-01-09T06:32:08.532Z,-2.03
2024-01-09T06:33:08.713Z,-2.05
2024-01-09T06:34:08.676Z,-2.02
2024-01-09T06:35:08.546Z,-2.05
2024-01-09T06:36:08.512Z,-2.05
2024-01-09T06:37:08.510Z,-2.06
2024-01-09T06:38:08.489Z,-2.05
2024-01-09T06:39:08.559Z,-2.06
2024-01-09T06:40:09.239Z,-2.06
2024-01-09T06:41:08.461Z,-2.00
2024-01-09T06:42:08.453Z,-2.03
2024-01-09T06:43:08.411Z,-2.02
2024-01-09T06:44:08.416Z,-2.03
2024-01-09T06:45:08.465Z,-2.02
2024-01-09T06:46:08.404Z,-2.05
2024-01-09T06:47:08.377Z,-2.03
2024-01-09T06:48:08.446Z,-2.03
2024-01-09T06:49:08.422Z,-2.06
2024-01-09T06:50:16.958Z,-2.05
2024-01-09T06:51:09.369Z,-2.05
2024-01-09T06:52:08.341Z,-2.05
2024-01-09T06:53:08.329Z,-2.06
2024-01-09T06:54:08.305Z,-2.05
2024-01-09T06:55:08.291Z,-2.06
2024-01-09T06:56:08.422Z,-2.05
2024-01-09T06:57:08.297Z,-2.03
2024-01-09T06:58:08.298Z,-2.05
2024-01-09T06:59:08.272Z,-2.06
2024-01-09T07:00:08.495Z,-2.05
2024-01-09T07:01:10.186Z,-2.06
2024-01-09T07:02:08.296Z,-2.03
2024-01-09T07:03:08.266Z,-2.03
2024-01-09T07:04:08.258Z,-2.02
2024-01-09T07:05:08.245Z,-2.02
2024-01-09T07:06:08.251Z,-2.03
2024-01-09T07:07:11.217Z,-2.02
2024-01-09T07:08:08.185Z,-2.00
2024-01-09T07:09:08.188Z,-2.00
2024-01-09T07:10:09.127Z,-2.02
2024-01-09T07:11:08.120Z,-2.02
2024-01-09T07:12:08.127Z,-2.00
2024-01-09T07:13:08.119Z,-2.02
2024-01-09T07:14:08.144Z,-2.00
2024-01-09T07:15:08.178Z,-2.02
2024-01-09T07:16:08.093Z,-2.00
2024-01-09T07:17:08.093Z,-1.98
2024-01-09T07:18:08.271Z,-1.98
2024-01-09T07:19:08.197Z,-1.97
2024-01-09T07:20:08.059Z,-1.98
2024-01-09T07:21:08.176Z,-1.98
2024-01-09T07:22:08.086Z,-1.95
2024-01-09T07:23:16.782Z,-1.97
2024-01-09T07:24:09.016Z,-1.97
2024-01-09T07:25:07.998Z,-1.95
2024-01-09T07:26:07.972Z,-1.95
2024-01-09T07:27:07.979Z,-1.95
2024-01-09T07:28:07.959Z,-1.94
2024-01-09T07:29:07.934Z,-1.94
2024-01-09T07:30:07.994Z,-1.95
2024-01-09T07:31:08.358Z,-1.95
2024-01-09T07:32:07.906Z,-1.97
2024-01-09T07:33:08.057Z,-1.94
2024-01-09T07:34:07.979Z,-1.94
2024-01-09T07:35:08.694Z,-1.92
2024-01-09T07:36:07.882Z,-1.97
2024-01-09T07:37:07.959Z,-1.97
2024-01-09T07:38:07.864Z,-1.95
2024-01-09T07:39:07.836Z,-1.95
2024-01-09T07:40:07.839Z,-1.98
2024-01-09T07:41:07.830Z,-1.95
2024-01-09T07:42:07.844Z,-1.94
2024-01-09T07:43:07.818Z,-1.95
2024-01-09T07:44:07.798Z,-1.95
2024-01-09T07:45:07.774Z,-1.94
2024-01-09T07:46:07.775Z,-1.94
2024-01-09T07:47:07.756Z,-1.91
2024-01-09T07:48:07.820Z,-1.91
2024-01-09T07:49:07.869Z,-1.92
2024-01-09T07:50:07.733Z,-1.92
2024-01-09T07:51:07.807Z,-1.88
2024-01-09T07:52:07.700Z,-1.92
2024-01-09T07:53:07.776Z,-1.90
2024-01-09T07:54:07.677Z,-1.91
2024-01-09T07:55:07.672Z,-1.91
2024-01-09T07:56:07.661Z,-1.90
2024-01-09T07:57:18.431Z,-1.90
2024-01-09T07:58:08.651Z,-1.88
2024-01-09T07:59:07.646Z,-1.88
2024-01-09T08:00:07.622Z,-1.87
2024-01-09T08:01:07.790Z,-1.85
2024-01-09T08:02:07.619Z,-1.91
2024-01-09T08:03:08.001Z,-1.90
2024-01-09T08:04:07.736Z,-1.91
2024-01-09T08:05:07.584Z,-1.91
2024-01-09T08:06:07.612Z,-1.90
2024-01-09T08:07:07.691Z,-1.88
2024-01-09T08:08:07.590Z,-1.90
2024-01-09T08:09:07.561Z,-1.87
2024-01-09T08:10:07.527Z,-1.85
2024-01-09T08:11:07.506Z,-1.85
2024-01-09T08:12:08.315Z,-1.84
2024-01-09T08:13:07.485Z,-1.87
2024-01-09T08:14:07.508Z,-1.88
2024-01-09T08:15:07.615Z,-1.88
2024-01-09T08:16:07.485Z,-1.88
2024-01-09T08:17:07.467Z,-1.90
2024-01-09T08:18:07.491Z,-1.90
2024-01-09T08:19:07.531Z,-1.88
2024-01-09T08:20:07.408Z,-1.87
2024-01-09T08:21:07.513Z,-1.85
2024-01-09T08:22:07.400Z,-1.80
2024-01-09T08:23:07.408Z,-1.84
2024-01-09T08:24:07.367Z,-1.84
2024-01-09T08:25:07.369Z,-1.85
2024-01-09T08:26:07.357Z,-1.85
2024-01-09T08:27:07.357Z,-1.84
2024-01-09T08:28:07.335Z,-1.84
2024-01-09T08:29:07.336Z,-1.84
2024-01-09T08:30:07.338Z,-1.77
2024-01-09T08:31:07.377Z,-1.80
2024-01-09T08:32:07.282Z,-1.80
2024-01-09T08:33:07.421Z,-1.82
2024-01-09T08:34:07.476Z,-1.82
2024-01-09T08:35:07.321Z,-1.84
2024-01-09T08:36:07.303Z,-1.85
2024-01-09T08:37:07.270Z,-1.85
2024-01-09T08:38:07.231Z,-1.84
2024-01-09T08:39:07.740Z,-1.82
2024-01-09T08:40:07.209Z,-1.82
2024-01-09T08:41:07.238Z,-1.80
2024-01-09T08:42:07.291Z,-1.82
2024-01-09T08:43:07.202Z,-1.77
2024-01-09T08:44:07.166Z,-1.79
2024-01-09T08:45:07.243Z,-1.77
2024-01-09T08:46:07.146Z,-1.77
2024-01-09T08:47:07.186Z,-1.77
2024-01-09T08:48:07.275Z,-1.77
2024-01-09T08:49:07.273Z,-1.74
2024-01-09T08:50:07.117Z,-1.73
2024-01-09T08:51:12.845Z,-1.73
2024-01-09T08:52:08.173Z,-1.76
2024-01-09T08:53:07.095Z,-1.73
2024-01-09T08:54:07.104Z,-1.77
2024-01-09T08:55:07.053Z,-1.76
2024-01-09T08:56:07.047Z,-1.73
2024-01-09T08:57:07.073Z,-1.76
2024-01-09T08:58:07.029Z,-1.76
2024-01-09T08:59:07.021Z,-1.74
2024-01-09T09:00:07.033Z,-1.74
2024-01-09T09:01:07.104Z,-1.76
2024-01-09T09:02:07.081Z,-1.74
2024-01-09T09:03:07.062Z,-1.74
2024-01-09T09:04:07.045Z,-1.72
2024-01-09T09:05:06.970Z,-1.70
2024-01-09T09:06:07.041Z,-1.70
2024-01-09T09:07:06.946Z,-1.66
2024-01-09T09:08:06.921Z,-1.66
2024-01-09T09:09:06.936Z,-1.66
2024-01-09T09:10:06.927Z,-1.64
2024-01-09T09:11:06.966Z,-1.66
2024-01-09T09:12:06.952Z,-1.64
2024-01-09T09:13:06.876Z,-1.66
2024-01-09T09:14:06.860Z,-1.62
2024-01-09T09:15:06.904Z,-1.61
2024-01-09T09:16:06.850Z,-1.59
2024-01-09T09:17:06.851Z,-1.58
2024-01-09T09:18:06.977Z,-1.58
2024-01-09T09:19:06.934Z,-1.55
2024-01-09T09:20:06.899Z,-1.51
2024-01-09T09:21:06.914Z,-1.46
2024-01-09T09:22:06.787Z,-1.46
2024-01-09T09:23:06.780Z,-1.45
2024-01-09T09:24:06.836Z,-1.41
2024-01-09T09:25:06.768Z,-1.46
2024-01-09T09:26:06.813Z,-1.41
2024-01-09T09:27:06.821Z,-1.46
2024-01-09T09:28:06.776Z,-1.45
2024-01-09T09:29:15.394Z,-1.40
2024-01-09T09:30:07.763Z,-1.37
2024-01-09T09:31:06.765Z,-1.33
2024-01-09T09:32:07.292Z,-1.33
2024-01-09T09:33:06.920Z,-1.30
2024-01-09T09:34:06.753Z,-1.28
2024-01-09T09:35:07.233Z,-1.27
2024-01-09T09:36:06.753Z,-1.31
2024-01-09T09:37:06.626Z,-1.25
2024-01-09T09:38:06.639Z,-1.22
2024-01-09T09:39:06.734Z,-1.23
2024-01-09T09:40:06.591Z,-1.27
2024-01-09T09:41:06.684Z,-1.23
2024-01-09T09:42:06.606Z,-1.15
2024-01-09T09:43:06.764Z,-1.12
2024-01-09T09:44:06.576Z,-1.12
2024-01-09T09:45:06.583Z,-1.22
2024-01-09T09:46:08.179Z,-1.22
2024-01-09T09:47:06.533Z,-1.22
2024-01-09T09:48:06.873Z,-1.23
2024-01-09T09:49:06.594Z,-1.19
2024-01-09T09:50:06.497Z,-1.17
2024-01-09T09:51:06.543Z,-1.17
2024-01-09T09:52:06.921Z,-1.20
2024-01-09T09:53:06.470Z,-1.17
2024-01-09T09:54:06.474Z,-1.17
2024-01-09T09:55:06.438Z,-1.13
2024-01-09T09:56:06.436Z,-1.09
2024-01-09T09:57:06.491Z,-1.05
2024-01-09T09:58:06.412Z,-1.02
2024-01-09T09:59:06.397Z,-1.02
2024-01-09T10:00:06.477Z,-0.99
2024-01-09T10:01:06.493Z,-0.98
2024-01-09T10:02:06.370Z,-1.01
2024-01-09T10:03:06.423Z,-0.99
2024-01-09T10:04:06.372Z,-0.98
2024-01-09T10:05:06.359Z,-0.98
2024-01-09T10:06:06.539Z,-0.98
2024-01-09T10:07:06.354Z,-0.99
2024-01-09T10:08:06.299Z,-1.02
2024-01-09T10:09:06.319Z,-1.01
2024-01-09T10:10:06.285Z,-1.01
2024-01-09T10:11:06.264Z,-1.02
2024-01-09T10:12:06.273Z,-1.02
2024-01-09T10:13:06.256Z,-0.99
2024-01-09T10:14:06.245Z,-1.02
2024-01-09T10:15:06.356Z,-0.99
2024-01-09T10:16:06.220Z,-0.95
2024-01-09T10:17:06.268Z,-0.95
2024-01-09T10:18:06.241Z,-0.92
2024-01-09T10:19:06.266Z,-0.95
2024-01-09T10:20:06.175Z,-0.91
2024-01-09T10:21:06.644Z,-0.94
2024-01-09T10:22:06.177Z,-0.97
2024-01-09T10:23:06.158Z,-0.97
2024-01-09T10:24:06.199Z,-0.94
2024-01-09T10:25:06.127Z,-0.94
2024-01-09T10:26:06.112Z,-0.91
2024-01-09T10:27:06.199Z,-0.91
2024-01-09T10:28:06.105Z,-0.95
2024-01-09T10:29:06.100Z,-0.98
2024-01-09T10:30:06.305Z,-0.95
2024-01-09T10:31:06.108Z,-0.94
2024-01-09T10:32:06.068Z,-0.91
2024-01-09T10:33:06.108Z,-0.95
2024-01-09T10:34:06.107Z,-0.98
2024-01-09T10:35:06.031Z,-0.89
2024-01-09T10:36:06.090Z,-0.89
2024-01-09T10:37:06.010Z,-0.85
2024-01-09T10:38:05.990Z,-0.86
2024-01-09T10:39:06.321Z,-0.85
2024-01-09T10:40:05.996Z,-0.86
2024-01-09T10:41:05.958Z,-0.91
2024-01-09T10:42:05.996Z,-0.86
2024-01-09T10:43:05.935Z,-0.85
2024-01-09T10:44:08.367Z,-0.83
2024-01-09T10:45:05.972Z,-0.79
2024-01-09T10:46:05.906Z,-0.79
2024-01-09T10:47:05.905Z,-0.80
2024-01-09T10:48:06.112Z,-0.75
2024-01-09T10:49:06.001Z,-0.72
2024-01-09T10:50:06.252Z,-0.64
2024-01-09T10:51:05.931Z,-0.65
2024-01-09T10:52:05.841Z,-0.67
2024-01-09T10:53:05.825Z,-0.69
2024-01-09T10:54:05.864Z,-0.69
2024-01-09T10:55:05.818Z,-0.65
2024-01-09T10:56:05.797Z,-0.64
2024-01-09T10:57:05.887Z,-0.70
2024-01-09T10:58:05.778Z,-0.72
2024-01-09T10:59:05.789Z,-0.70
2024-01-09T11:00:05.794Z,-0.65
2024-01-09T11:01:05.775Z,-0.72
2024-01-09T11:02:05.784Z,-0.76
2024-01-09T11:03:05.807Z,-0.80
2024-01-09T11:04:05.760Z,-0.83
2024-01-09T11:05:05.775Z,-0.82
2024-01-09T11:06:06.160Z,-0.85
2024-01-09T11:07:05.706Z,-0.85
2024-01-09T11:08:05.669Z,-0.80
2024-01-09T11:09:05.880Z,-0.76
2024-01-09T11:10:05.668Z,-0.78
2024-01-09T11:11:05.654Z,-0.79
2024-01-09T11:12:05.746Z,-0.75
2024-01-09T11:13:05.625Z,-0.76
2024-01-09T11:14:05.608Z,-0.70
2024-01-09T11:15:05.665Z,-0.69
2024-01-09T11:16:05.635Z,-0.75
2024-01-09T11:17:05.882Z,-0.72
2024-01-09T11:18:05.714Z,-0.76
2024-01-09T11:19:05.625Z,-0.73
2024-01-09T11:20:05.610Z,-0.83
2024-01-09T11:21:05.651Z,-0.91
2024-01-09T11:22:05.534Z,-0.89
2024-01-09T11:23:05.520Z,-0.89
2024-01-09T11:24:05.648Z,-0.86
2024-01-09T11:25:05.499Z,-0.82
2024-01-09T11:26:05.488Z,-0.79
2024-01-09T11:27:05.547Z,-0.75
2024-01-09T11:28:05.533Z,-0.72
2024-01-09T11:29:05.600Z,-0.70
2024-01-09T11:30:05.574Z,-0.78
2024-01-09T11:31:05.516Z,-0.76
2024-01-09T11:32:05.419Z,-0.69
2024-01-09T11:33:05.909Z,-0.64
2024-01-09T11:34:05.950Z,-0.69
2024-01-09T11:35:05.405Z,-0.72
2024-01-09T11:36:05.497Z,-0.69
2024-01-09T11:37:05.377Z,-0.65
2024-01-09T11:38:05.359Z,-0.70
2024-01-09T11:39:05.502Z,-0.69
2024-01-09T11:40:05.341Z,-0.69
2024-01-09T11:41:05.345Z,-0.70
2024-01-09T11:42:05.405Z,-0.72
2024-01-09T11:43:05.322Z,-0.70
2024-01-09T11:44:05.483Z,-0.69
2024-01-09T11:45:05.330Z,-0.70
2024-01-09T11:46:05.301Z,-0.69
2024-01-09T11:47:05.328Z,-0.64
2024-01-09T11:48:05.392Z,-0.60
2024-01-09T11:49:05.460Z,-0.52
2024-01-09T11:50:05.710Z,-0.43
2024-01-09T11:51:05.298Z,-0.42
2024-01-09T11:52:05.232Z,-0.36
2024-01-09T11:53:05.215Z,-0.33
2024-01-09T11:54:05.682Z,-0.28
2024-01-09T11:55:05.206Z,-0.29
2024-01-09T11:56:05.212Z,-0.33
2024-01-09T11:57:05.177Z,-0.39
2024-01-09T11:58:05.181Z,-0.47
2024-01-09T11:59:05.183Z,-0.58
2024-01-09T12:00:05.266Z,-0.67
2024-01-09T12:01:05.229Z,-0.62
2024-01-09T12:02:05.120Z,-0.65
2024-01-09T12:03:05.124Z,-0.65
2024-01-09T12:04:05.188Z,-0.61
2024-01-09T12:05:05.120Z,-0.55
2024-01-09T12:06:05.114Z,-0.54
2024-01-09T12:07:05.184Z,-0.57
2024-01-09T12:08:05.066Z,-0.52
2024-01-09T12:09:05.113Z,-0.51
2024-01-09T12:10:12.841Z,-0.47
2024-01-09T12:11:06.025Z,-0.46
2024-01-09T12:12:05.138Z,-0.40
2024-01-09T12:13:05.019Z,-0.37
2024-01-09T12:14:05.035Z,-0.39
2024-01-09T12:15:05.021Z,-0.37
2024-01-09T12:16:04.984Z,-0.42
2024-01-09T12:17:04.952Z,-0.43
2024-01-09T12:18:05.025Z,-0.55
2024-01-09T12:19:05.128Z,-0.60
2024-01-09T12:20:04.989Z,-0.58
2024-01-09T12:21:05.190Z,-0.60
2024-01-09T12:22:04.920Z,-0.61
2024-01-09T12:23:04.897Z,-0.61
2024-01-09T12:24:20.213Z,-0.60
2024-01-09T12:25:05.977Z,-0.60
2024-01-09T12:26:04.902Z,-0.64
2024-01-09T12:27:04.980Z,-0.62
2024-01-09T12:28:04.873Z,-0.64
2024-01-09T12:29:04.926Z,-0.61
2024-01-09T12:30:04.935Z,-0.65
2024-01-09T12:31:04.855Z,-0.69
2024-01-09T12:32:04.935Z,-0.70
2024-01-09T12:33:04.976Z,-0.69
2024-01-09T12:34:04.926Z,-0.69
2024-01-09T12:35:04.826Z,-0.75
2024-01-09T12:36:04.815Z,-0.75
2024-01-09T12:37:04.769Z,-0.80
2024-01-09T12:38:04.751Z,-0.82
2024-01-09T12:39:04.972Z,-0.89
2024-01-09T12:40:04.740Z,-0.97
2024-01-09T12:41:04.737Z,-0.98
2024-01-09T12:42:04.826Z,-0.98
2024-01-09T12:43:04.704Z,-0.97
2024-01-09T12:44:04.702Z,-0.97
2024-01-09T12:45:04.836Z,-0.97
2024-01-09T12:46:06.742Z,-0.95
2024-01-09T12:47:04.656Z,-0.92
2024-01-09T12:48:04.712Z,-0.91
2024-01-09T12:49:04.834Z,-0.89
2024-01-09T12:50:05.993Z,-0.97
2024-01-09T12:51:04.683Z,-0.99
2024-01-09T12:52:04.627Z,-1.01